createdAt,value
2018-04-17T04:58:51.083Z,6.40
2018-04-17T05:01:22.012Z,6.40
2018-04-17T05:06:26.261Z,6.40
2018-04-17T05:08:55.512Z,6.50
2018-04-17T05:11:26.354Z,6.50
2018-04-17T05:13:55.618Z,6.50
2018-04-17T05:16:23.112Z,6.60
2018-04-17T05:18:51.074Z,6.60
2018-04-17T05:21:19.870Z,6.60
2018-04-17T05:23:48.621Z,6.70
2018-04-17T05:29:19.448Z,6.80
2018-04-17T05:31:47.392Z,6.90
2018-04-17T05:34:22.163Z,7.00
2018-04-17T05:36:59.215Z,7.00
2018-04-17T05:39:36.619Z,7.10
2018-04-17T05:42:04.754Z,7.10
2018-04-17T05:44:32.379Z,7.20
2018-04-17T05:46:59.718Z,7.20
2018-04-17T05:49:46.890Z,7.30
2018-04-17T06:04:33.068Z,7.70
2018-04-17T07:43:29.725Z,11.80
2018-04-17T07:45:56.196Z,11.70
2018-04-17T07:48:34.801Z,11.80
2018-04-17T07:51:01.107Z,11.90
2018-04-17T07:53:27.245Z,12.10
2018-04-17T07:55:54.487Z,12.20
2018-04-17T07:58:20.837Z,12.30
2018-04-17T08:00:47.935Z,12.50
2018-04-17T08:05:47.283Z,12.60
2018-04-17T08:08:15.322Z,12.70
2018-04-17T08:10:44.469Z,12.80
2018-04-17T08:13:11.036Z,12.90
2018-04-17T08:15:37.196Z,13.00
2018-04-17T08:18:03.831Z,13.00
2018-04-17T08:20:29.963Z,13.20
2018-04-17T08:22:56.496Z,13.30
2018-04-17T08:25:22.657Z,13.50
2018-04-17T08:27:48.800Z,13.60
2018-04-17T08:30:15.791Z,13.80
2018-04-17T08:32:42.007Z,13.80
2018-04-17T08:35:08.149Z,13.90
2018-04-17T08:37:34.365Z,14.10
2018-04-17T08:40:00.531Z,14.20
2018-04-17T08:42:26.703Z,14.30
2018-04-17T08:44:53.644Z,14.50
2018-04-17T08:47:20.504Z,14.60
2018-04-17T08:49:46.604Z,14.50
2018-04-17T08:52:12.947Z,14.60
2018-04-17T08:54:39.059Z,14.80
2018-04-17T08:57:05.199Z,14.90
2018-04-17T08:59:31.371Z,14.90
2018-04-17T09:01:57.497Z,15.00
2018-04-17T09:04:23.609Z,15.10
2018-04-17T09:06:50.144Z,15.30
2018-04-17T09:09:16.301Z,15.50
2018-04-17T09:11:42.486Z,15.60
2018-04-17T09:14:09.013Z,15.70
2018-04-17T09:16:35.342Z,15.90
2018-04-17T09:19:01.494Z,16.00
2018-04-17T09:21:27.793Z,16.10
2018-04-17T09:23:54.881Z,16.40
2018-04-17T09:26:21.238Z,16.30
2018-04-17T09:28:47.542Z,16.60
2018-04-17T09:31:13.672Z,16.70
2018-04-17T09:33:40.361Z,16.80
2018-04-17T09:36:07.207Z,16.80
2018-04-17T09:38:34.194Z,16.90
2018-04-17T09:41:01.800Z,17.10
2018-04-17T09:43:29.892Z,17.10
2018-04-17T09:45:58.083Z,17.10
2018-04-17T09:48:28.979Z,17.20
2018-04-17T09:51:00.687Z,17.40
2018-04-17T09:53:30.892Z,17.40
2018-04-17T09:55:58.715Z,17.60
2018-04-17T09:58:26.453Z,17.70
2018-04-17T10:00:59.183Z,17.90
2018-04-17T10:03:36.886Z,18.20
2018-04-17T10:06:03.401Z,18.10
2018-04-17T10:08:31.536Z,18.00
2018-04-17T10:11:02.099Z,18.10
2018-04-17T10:13:30.849Z,18.20
2018-04-17T10:15:58.337Z,18.30
2018-04-17T10:18:25.575Z,18.40
2018-04-17T10:20:57.822Z,18.40
2018-04-17T10:23:25.686Z,18.30
2018-04-17T10:25:52.064Z,18.30
2018-04-17T10:28:19.659Z,18.40
2018-04-17T10:30:47.107Z,18.60
2018-04-17T10:33:18.128Z,18.60
2018-04-17T10:35:46.248Z,18.70
2018-04-17T10:38:12.632Z,18.70
2018-04-17T10:40:41.782Z,18.80
2018-04-17T10:43:08.081Z,19.00
2018-04-17T10:45:34.190Z,18.90
2018-04-17T10:48:02.962Z,18.90
2018-04-17T10:50:30.537Z,19.00
2018-04-17T10:53:00.893Z,18.90
2018-04-17T10:55:27.149Z,19.00
2018-04-17T10:57:53.414Z,19.20
2018-04-17T11:00:19.672Z,19.30
2018-04-17T11:02:45.928Z,19.40
2018-04-17T11:05:12.404Z,19.40
2018-04-17T11:07:38.653Z,19.40
2018-04-17T11:10:05.979Z,19.40
2018-04-17T11:12:32.867Z,19.40
2018-04-17T11:15:01.873Z,19.40
2018-04-17T11:17:28.053Z,19.40
2018-04-17T11:19:55.821Z,19.40
2018-04-17T11:22:22.771Z,19.50
2018-04-17T11:24:49.119Z,19.60
2018-04-17T11:27:15.371Z,19.60
2018-04-17T11:29:44.929Z,19.80
2018-04-17T11:32:11.421Z,19.80
2018-04-17T11:34:38.066Z,19.80
2018-04-17T11:37:04.557Z,19.80
2018-04-17T11:39:30.906Z,19.90
2018-04-17T11:41:58.222Z,19.90
2018-04-17T11:44:24.531Z,19.90
2018-04-17T11:46:51.591Z,20.10
2018-04-17T11:49:17.735Z,20.10
2018-04-17T11:51:43.974Z,20.10
2018-04-17T11:54:10.890Z,20.20
2018-04-17T11:56:37.414Z,20.30
2018-04-17T11:59:03.913Z,20.30
2018-04-17T12:01:31.175Z,20.40
2018-04-17T12:03:57.406Z,20.40
2018-04-17T12:06:23.594Z,20.60
2018-04-17T12:08:50.246Z,20.50
2018-04-17T12:11:17.430Z,20.50
2018-04-17T12:19:51.534Z,20.60
2018-04-17T12:25:26.504Z,20.70
2018-04-17T12:28:23.739Z,20.90
2018-04-17T12:31:25.833Z,21.00
2018-04-17T12:33:57.320Z,21.10
2018-04-17T12:36:37.003Z,21.30
2018-04-17T12:39:03.618Z,21.50
2018-04-17T12:41:34.663Z,21.50
2018-04-17T12:44:14.711Z,21.40
2018-04-17T12:46:42.723Z,21.40
2018-04-17T12:49:12.005Z,21.40
2018-04-17T12:51:38.175Z,21.20
2018-04-17T12:54:06.089Z,21.50
2018-04-17T12:56:36.919Z,21.50
2018-04-17T12:59:13.049Z,21.70
2018-04-17T13:04:13.136Z,21.60
2018-04-17T13:06:39.563Z,21.80
2018-04-17T13:09:06.267Z,21.80
2018-04-17T13:11:41.127Z,21.60
2018-04-17T13:14:10.799Z,21.80
2018-04-17T13:16:38.006Z,22.10
2018-04-17T13:19:07.488Z,22.20
2018-04-17T13:21:35.277Z,22.10
2018-04-17T13:24:04.031Z,22.10
2018-04-17T13:26:42.951Z,22.10
2018-04-17T13:29:22.969Z,22.10
2018-04-17T13:31:51.946Z,22.20
2018-04-17T13:49:33.010Z,22.90
2018-04-17T13:51:59.641Z,22.70
2018-04-17T13:54:34.296Z,22.70
2018-04-17T13:57:02.373Z,22.90
2018-04-17T14:02:30.509Z,23.50
2018-04-17T14:05:12.015Z,23.40
2018-04-17T14:07:42.336Z,23.30
2018-04-17T14:10:14.628Z,23.20
2018-04-17T14:12:42.506Z,23.10
2018-04-17T14:15:15.750Z,23.10
2018-04-17T14:17:42.414Z,23.10
2018-04-17T14:20:08.891Z,23.20
2018-04-17T14:28:42.665Z,23.30
2018-04-17T14:31:18.963Z,23.30
2018-04-17T14:33:50.971Z,23.40
2018-04-17T14:36:20.753Z,23.50
2018-04-17T14:38:47.069Z,23.60
2018-04-17T14:41:13.612Z,23.80
2018-04-17T14:43:41.828Z,23.90
2018-04-17T14:46:09.362Z,24.90
2018-04-17T14:48:35.777Z,24.90
2018-04-17T14:51:04.923Z,25.00
2018-04-17T14:56:10.408Z,24.90
2018-04-17T14:58:41.487Z,24.90
2018-04-17T15:07:32.187Z,24.90
2018-04-17T15:09:58.946Z,24.70
2018-04-17T15:12:28.295Z,24.60
2018-04-17T15:14:54.900Z,24.30
2018-04-17T15:17:23.690Z,24.30
2018-04-17T15:19:57.295Z,24.30
2018-04-17T15:22:30.301Z,24.50
2018-04-17T15:25:02.725Z,24.70
2018-04-17T15:27:30.132Z,24.70
2018-04-17T15:32:33.669Z,24.70
2018-04-17T15:35:02.070Z,24.80
2018-04-17T15:37:43.415Z,25.00
2018-04-17T15:40:13.599Z,25.50
2018-04-17T15:42:43.869Z,26.20
2018-04-17T15:50:35.593Z,30.40
2018-04-17T15:53:03.797Z,31.10
2018-04-17T15:55:41.392Z,30.50
2018-04-17T16:01:25.605Z,29.40
2018-04-17T17:22:37.927Z,25.00
2018-04-17T17:25:05.194Z,24.80
2018-04-17T17:33:41.745Z,25.20
2018-04-17T17:36:10.235Z,25.20
2018-04-17T17:41:34.627Z,24.80
2018-04-17T17:44:11.389Z,23.70
2018-04-17T17:58:50.359Z,22.20
2018-04-17T18:10:48.750Z,21.40
2018-04-17T18:13:22.076Z,21.10
2018-04-17T19:01:57.979Z,17.80
2018-04-17T19:04:24.273Z,17.60
2018-04-17T19:06:51.852Z,17.50
2018-04-17T19:09:18.352Z,17.30
2018-04-17T19:11:44.801Z,17.20
2018-04-17T19:14:11.456Z,17.10
2018-04-17T19:16:37.832Z,17.00
2018-04-17T19:19:08.115Z,16.80
2018-04-17T19:21:34.508Z,16.80
2018-04-17T19:24:02.620Z,16.70
2018-04-17T19:26:29.047Z,16.60
2018-04-17T19:28:55.515Z,16.50
2018-04-17T19:31:22.034Z,16.50
2018-04-17T19:33:48.461Z,16.40
2018-04-17T19:36:19.396Z,16.30
2018-04-17T19:38:49.471Z,16.20
2018-04-17T19:41:18.532Z,16.20
2018-04-17T19:43:48.852Z,16.10
2018-04-17T19:46:18.329Z,16.00
2018-04-17T19:48:48.828Z,15.80
2018-04-17T19:51:19.191Z,15.80
2018-04-17T19:53:49.051Z,15.80
2018-04-17T19:56:19.391Z,15.70
2018-04-17T19:58:50.050Z,15.60
2018-04-17T20:01:21.235Z,15.50
2018-04-17T20:03:51.446Z,15.50
2018-04-17T20:06:18.277Z,15.40
2018-04-17T20:08:47.112Z,15.40
2018-04-17T20:11:16.186Z,15.30
2018-04-17T20:53:33.420Z,14.60
2018-04-17T20:56:07.875Z,14.50
2018-04-17T20:58:34.417Z,14.40
2018-04-17T21:01:22.967Z,14.40
